createdAt,value
2022-10-19T00:01:08.654Z,100.00
2022-10-19T00:03:36.153Z,100.00
2022-10-19T00:06:16.743Z,100.00
2022-10-19T00:08:44.091Z,100.00
2022-10-19T00:11:11.277Z,100.00
2022-10-19T00:13:38.083Z,100.00
2022-10-19T00:16:13.051Z,100.00
2022-10-19T00:18:41.221Z,100.00
2022-10-19T00:21:09.568Z,100.00
2022-10-19T00:23:36.719Z,100.00
2022-10-19T00:26:03.842Z,100.00
2022-10-19T00:28:30.590Z,100.00
2022-10-19T00:30:57.250Z,100.00
2022-10-19T00:33:23.789Z,100.00
2022-10-19T00:35:52.722Z,100.00
2022-10-19T00:38:21.218Z,100.00
2022-10-19T00:40:48.696Z,100.00
2022-10-19T00:43:21.222Z,100.00
2022-10-19T00:45:50.383Z,100.00
2022-10-19T00:48:34.745Z,100.00
2022-10-19T00:51:02.078Z,100.00
2022-10-19T00:53:30.571Z,100.00
2022-10-19T00:55:58.538Z,100.00
2022-10-19T00:58:25.040Z,100.00
2022-10-19T01:00:54.084Z,100.00
2022-10-19T01:03:25.173Z,100.00
2022-10-19T01:05:52.845Z,100.00
2022-10-19T01:08:20.099Z,100.00
2022-10-19T01:10:55.168Z,100.00
2022-10-19T01:14:06.429Z,100.00
2022-10-19T01:17:05.534Z,100.00
2022-10-19T01:20:09.077Z,100.00
2022-10-19T01:23:10.258Z,100.00
2022-10-19T01:25:36.608Z,100.00
2022-10-19T01:28:08.759Z,100.00
2022-10-19T01:30:56.313Z,100.00
2022-10-19T01:33:40.238Z,100.00
2022-10-19T01:36:17.917Z,100.00
2022-10-19T01:38:59.238Z,100.00
2022-10-19T01:41:34.758Z,100.00
2022-10-19T01:44:21.398Z,100.00
2022-10-19T01:46:54.619Z,100.00
2022-10-19T01:49:37.635Z,100.00
2022-10-19T01:52:07.124Z,100.00
2022-10-19T01:54:42.701Z,100.00
2022-10-19T01:57:12.792Z,100.00
2022-10-19T01:59:39.679Z,100.00
2022-10-19T02:02:11.743Z,100.00
2022-10-19T02:04:38.471Z,100.00
2022-10-19T02:07:07.679Z,100.00
2022-10-19T02:09:36.239Z,100.00
2022-10-19T02:15:10.401Z,100.00
2022-10-19T02:17:42.055Z,100.00
2022-10-19T02:20:08.955Z,100.00
2022-10-19T02:22:35.992Z,100.00
2022-10-19T02:25:03.420Z,100.00
2022-10-19T02:27:32.604Z,100.00
2022-10-19T02:29:59.149Z,100.00
2022-10-19T02:32:26.823Z,100.00
2022-10-19T02:34:53.539Z,100.00
2022-10-19T02:37:22.164Z,100.00
2022-10-19T02:39:53.100Z,100.00
2022-10-19T02:42:31.097Z,100.00
2022-10-19T02:45:06.818Z,100.00
2022-10-19T02:47:41.982Z,100.00
2022-10-19T02:50:09.500Z,100.00
2022-10-19T02:52:40.643Z,100.00
2022-10-19T02:55:08.529Z,100.00
2022-10-19T02:57:35.142Z,100.00
2022-10-19T03:00:03.475Z,100.00
2022-10-19T03:02:30.026Z,100.00
2022-10-19T03:04:56.433Z,100.00
2022-10-19T03:07:22.911Z,100.00
2022-10-19T03:09:49.901Z,100.00
2022-10-19T03:12:16.497Z,100.00
2022-10-19T03:14:43.254Z,100.00
2022-10-19T03:17:10.042Z,100.00
2022-10-19T03:19:37.246Z,100.00
2022-10-19T03:22:04.063Z,100.00
2022-10-19T03:24:31.520Z,100.00
2022-10-19T03:27:00.378Z,100.00
2022-10-19T03:29:26.828Z,100.00
2022-10-19T03:31:54.457Z,100.00
2022-10-19T03:34:20.972Z,100.00
2022-10-19T03:36:47.652Z,100.00
2022-10-19T03:39:18.022Z,100.00
2022-10-19T03:41:44.896Z,100.00
2022-10-19T03:44:14.121Z,100.00
2022-10-19T03:46:40.833Z,100.00
2022-10-19T03:49:08.934Z,100.00
2022-10-19T03:51:37.998Z,100.00
2022-10-19T03:54:12.553Z,100.00
2022-10-19T03:56:39.072Z,100.00
2022-10-19T03:59:08.081Z,100.00
2022-10-19T04:01:43.026Z,100.00
2022-10-19T04:04:17.569Z,100.00
2022-10-19T04:06:48.521Z,100.00
2022-10-19T04:09:18.483Z,100.00
2022-10-19T04:11:48.035Z,100.00
2022-10-19T04:14:26.742Z,100.00
2022-10-19T04:16:59.708Z,100.00
2022-10-19T04:19:26.136Z,100.00
2022-10-19T04:21:52.611Z,100.00
2022-10-19T04:24:19.380Z,100.00
2022-10-19T04:26:48.536Z,100.00
2022-10-19T04:29:18.965Z,100.00
2022-10-19T04:31:46.227Z,100.00
2022-10-19T04:34:13.984Z,100.00
2022-10-19T04:36:40.413Z,100.00
2022-10-19T04:39:07.869Z,100.00
2022-10-19T04:41:35.240Z,100.00
2022-10-19T04:44:06.651Z,100.00
2022-10-19T04:46:33.390Z,100.00
2022-10-19T04:48:59.793Z,100.00
2022-10-19T04:51:27.185Z,100.00
2022-10-19T04:53:56.932Z,100.00
2022-10-19T04:56:29.241Z,100.00
2022-10-19T04:59:00.043Z,100.00
2022-10-19T05:01:30.517Z,100.00
2022-10-19T05:03:59.812Z,100.00
2022-10-19T05:06:29.872Z,100.00
2022-10-19T05:08:58.090Z,100.00
2022-10-19T05:11:24.624Z,100.00
2022-10-19T05:13:51.185Z,100.00
2022-10-19T05:16:19.926Z,100.00
2022-10-19T05:18:58.619Z,100.00
2022-10-19T05:21:27.662Z,100.00
2022-10-19T05:23:55.780Z,100.00
2022-10-19T05:26:25.201Z,100.00
2022-10-19T05:29:02.664Z,100.00
2022-10-19T05:31:32.410Z,100.00
2022-10-19T05:34:00.009Z,100.00
2022-10-19T05:36:35.391Z,100.00
2022-10-19T05:39:25.285Z,100.00
2022-10-19T05:41:53.058Z,100.00
2022-10-19T05:44:22.095Z,100.00
2022-10-19T05:46:49.580Z,100.00
2022-10-19T05:49:20.283Z,100.00
2022-10-19T05:51:49.402Z,100.00
2022-10-19T05:54:16.429Z,100.00
2022-10-19T05:56:43.420Z,100.00
2022-10-19T05:59:14.419Z,100.00
2022-10-19T06:01:40.900Z,100.00
2022-10-19T06:04:07.452Z,100.00
2022-10-19T06:06:34.576Z,100.00
2022-10-19T06:09:01.221Z,100.00
2022-10-19T06:11:31.346Z,100.00
2022-10-19T06:13:59.908Z,100.00
2022-10-19T06:16:27.463Z,100.00
2022-10-19T06:18:55.471Z,100.00
2022-10-19T06:21:24.100Z,100.00
2022-10-19T06:23:51.773Z,100.00
2022-10-19T06:26:18.965Z,100.00
2022-10-19T06:28:51.035Z,100.00
2022-10-19T06:31:20.925Z,100.00
2022-10-19T06:33:49.381Z,100.00
2022-10-19T06:36:22.306Z,100.00
2022-10-19T06:38:49.269Z,100.00
2022-10-19T06:41:18.685Z,100.00
2022-10-19T06:43:49.885Z,100.00
2022-10-19T06:46:20.503Z,100.00
2022-10-19T06:48:57.428Z,100.00
2022-10-19T06:51:25.983Z,100.00
2022-10-19T06:53:56.528Z,100.00
2022-10-19T06:56:30.003Z,100.00
2022-10-19T06:58:58.990Z,100.00
2022-10-19T07:01:27.993Z,100.00
2022-10-19T07:03:56.956Z,100.00
2022-10-19T07:06:23.958Z,100.00
2022-10-19T07:08:50.462Z,100.00
2022-10-19T07:11:19.879Z,100.00
2022-10-19T07:13:48.640Z,100.00
2022-10-19T07:16:20.640Z,100.00
2022-10-19T07:18:48.595Z,100.00
2022-10-19T07:21:16.443Z,100.00
2022-10-19T07:23:47.204Z,100.00
2022-10-19T07:26:19.599Z,100.00
2022-10-19T07:28:49.770Z,100.00
2022-10-19T07:31:20.173Z,100.00
2022-10-19T07:33:47.715Z,100.00
2022-10-19T07:36:14.290Z,100.00
2022-10-19T07:38:40.837Z,100.00
2022-10-19T07:41:14.107Z,100.00
2022-10-19T07:43:42.091Z,100.00
2022-10-19T07:46:12.031Z,100.00
2022-10-19T07:48:38.444Z,100.00
2022-10-19T07:51:07.775Z,100.00
2022-10-19T07:53:35.613Z,100.00
2022-10-19T07:56:08.681Z,100.00
2022-10-19T07:58:36.458Z,100.00
2022-10-19T08:01:07.149Z,100.00
2022-10-19T08:06:22.064Z,100.00
2022-10-19T08:08:49.029Z,100.00
2022-10-19T08:11:26.711Z,100.00
2022-10-19T08:13:58.553Z,100.00
2022-10-19T08:16:32.703Z,100.00
2022-10-19T08:19:02.319Z,100.00
2022-10-19T08:21:30.058Z,100.00
2022-10-19T08:23:58.860Z,100.00
2022-10-19T08:26:28.983Z,100.00
2022-10-19T08:29:16.281Z,100.00
2022-10-19T08:31:44.250Z,100.00
2022-10-19T08:34:11.381Z,100.00
2022-10-19T08:36:37.940Z,100.00
2022-10-19T08:39:07.910Z,100.00
2022-10-19T08:41:40.589Z,100.00
2022-10-19T08:44:34.574Z,100.00
2022-10-19T08:47:16.508Z,100.00
2022-10-19T08:49:45.215Z,100.00
2022-10-19T08:52:34.583Z,100.00
2022-10-19T08:55:07.271Z,100.00
2022-10-19T08:57:51.515Z,100.00
2022-10-19T09:00:32.189Z,100.00
2022-10-19T09:03:10.907Z,100.00
2022-10-19T09:06:03.604Z,100.00
2022-10-19T09:08:30.444Z,100.00
2022-10-19T09:10:57.444Z,100.00
2022-10-19T09:13:46.962Z,100.00
2022-10-19T09:16:21.053Z,100.00
2022-10-19T09:18:47.510Z,100.00
2022-10-19T09:21:15.856Z,100.00
2022-10-19T09:24:06.862Z,100.00
2022-10-19T09:26:51.329Z,100.00
2022-10-19T09:29:21.179Z,100.00
2022-10-19T09:31:53.320Z,100.00
2022-10-19T09:34:31.500Z,100.00
2022-10-19T09:36:58.991Z,100.00
2022-10-19T09:39:29.552Z,100.00
2022-10-19T09:42:18.519Z,100.00
2022-10-19T09:44:45.008Z,100.00
2022-10-19T09:47:36.534Z,100.00
2022-10-19T09:50:17.030Z,100.00
2022-10-19T09:52:45.843Z,100.00
2022-10-19T09:55:15.687Z,100.00
2022-10-19T09:57:46.399Z,100.00
2022-10-19T10:00:19.092Z,100.00
2022-10-19T10:02:54.308Z,100.00
2022-10-19T10:05:33.877Z,100.00
2022-10-19T10:08:01.652Z,100.00
2022-10-19T10:10:39.315Z,100.00
2022-10-19T10:13:06.552Z,100.00
2022-10-19T10:15:47.065Z,100.00
2022-10-19T10:18:17.321Z,100.00
2022-10-19T10:21:01.501Z,100.00
2022-10-19T10:23:32.139Z,100.00
2022-10-19T10:25:59.986Z,100.00
2022-10-19T10:28:29.106Z,100.00
2022-10-19T10:31:09.673Z,100.00
2022-10-19T10:33:44.909Z,100.00
2022-10-19T10:36:12.697Z,100.00
2022-10-19T10:38:47.208Z,100.00
2022-10-19T10:41:20.648Z,100.00
2022-10-19T10:44:20.799Z,100.00
2022-10-19T10:46:58.640Z,100.00
2022-10-19T10:49:38.242Z,100.00
2022-10-19T10:52:09.577Z,100.00
2022-10-19T10:54:41.410Z,100.00
2022-10-19T10:57:13.049Z,100.00
2022-10-19T10:59:47.991Z,100.00
2022-10-19T11:02:20.423Z,100.00
2022-10-19T11:04:56.336Z,100.00
2022-10-19T11:07:29.015Z,98.72
2022-10-19T11:10:17.959Z,98.20
2022-10-19T11:12:51.899Z,98.45
2022-10-19T11:18:46.585Z,95.31
2022-10-19T11:21:37.654Z,97.30
2022-10-19T11:24:17.530Z,96.51
2022-10-19T11:26:53.614Z,94.77
2022-10-19T11:29:32.109Z,94.40
2022-10-19T11:31:58.648Z,96.48
2022-10-19T11:34:44.043Z,96.19
2022-10-19T11:37:49.435Z,95.59
2022-10-19T11:40:30.819Z,95.13
2022-10-19T11:43:04.864Z,94.97
2022-10-19T11:46:08.291Z,95.83
2022-10-19T11:49:06.204Z,94.78
2022-10-19T11:51:47.031Z,94.73
2022-10-19T11:54:22.924Z,92.95
2022-10-19T11:57:03.560Z,94.01
2022-10-19T12:00:15.128Z,92.14
2022-10-19T12:02:53.764Z,91.37
2022-10-19T12:05:31.168Z,92.74
2022-10-19T12:08:25.973Z,90.70
2022-10-19T12:10:55.370Z,91.40
2022-10-19T12:13:30.093Z,91.40
2022-10-19T12:15:59.482Z,90.54
2022-10-19T12:18:35.637Z,92.71
2022-10-19T12:21:10.771Z,91.73
2022-10-19T12:23:47.077Z,91.08
2022-10-19T12:28:56.049Z,89.82
2022-10-19T12:31:27.144Z,89.82
2022-10-19T12:34:16.289Z,89.68
2022-10-19T12:36:55.397Z,89.39
2022-10-19T12:39:30.492Z,91.07
2022-10-19T12:42:05.018Z,89.90
2022-10-19T12:44:40.600Z,89.30
2022-10-19T12:47:11.870Z,90.12
2022-10-19T12:50:10.671Z,89.57
2022-10-19T12:52:39.168Z,89.21
2022-10-19T12:55:17.573Z,89.14
2022-10-19T12:57:48.175Z,90.38
2022-10-19T13:00:30.117Z,89.63
2022-10-19T13:03:05.427Z,88.92
2022-10-19T13:05:33.824Z,88.67
2022-10-19T13:08:08.079Z,88.77
2022-10-19T13:10:38.398Z,90.94
2022-10-19T13:13:07.080Z,90.36
2022-10-19T13:15:36.500Z,88.69
2022-10-19T13:18:14.160Z,86.23
2022-10-19T13:23:11.927Z,86.62
2022-10-19T13:25:42.249Z,85.36
2022-10-19T13:28:12.591Z,85.71
2022-10-19T13:30:38.903Z,87.23
2022-10-19T13:33:34.717Z,87.00
2022-10-19T13:36:02.251Z,88.40
2022-10-19T13:38:33.468Z,86.30
2022-10-19T13:41:22.748Z,87.21
2022-10-19T13:43:56.034Z,86.80
2022-10-19T13:46:28.487Z,88.30
2022-10-19T13:49:19.710Z,85.99
2022-10-19T13:52:09.226Z,84.41
2022-10-19T13:54:55.654Z,86.12
2022-10-19T13:57:50.016Z,85.38
2022-10-19T14:00:23.014Z,86.25
2022-10-19T14:02:53.591Z,85.15
2022-10-19T14:05:32.166Z,84.90
2022-10-19T14:08:19.807Z,87.27
2022-10-19T14:11:00.569Z,86.23
2022-10-19T14:13:27.946Z,87.20
2022-10-19T14:15:57.083Z,86.82
2022-10-19T14:18:25.320Z,86.24
2022-10-19T14:21:03.874Z,86.05
2022-10-19T14:23:31.579Z,86.25
2022-10-19T14:26:01.648Z,85.64
2022-10-19T14:28:31.358Z,87.76
2022-10-19T14:31:01.973Z,86.53
2022-10-19T14:33:35.076Z,86.95
2022-10-19T14:36:02.393Z,87.26
2022-10-19T14:38:36.673Z,87.13
2022-10-19T14:41:06.193Z,86.99
2022-10-19T14:43:34.489Z,88.97
2022-10-19T14:46:06.982Z,87.21
2022-10-19T14:48:45.462Z,87.91
2022-10-19T14:51:31.112Z,88.03
2022-10-19T14:54:05.715Z,88.28
2022-10-19T14:56:55.645Z,89.07
2022-10-19T14:59:47.821Z,88.50
2022-10-19T15:02:26.376Z,89.13
2022-10-19T15:04:57.150Z,89.78
2022-10-19T15:07:38.802Z,89.41
2022-10-19T15:10:17.706Z,88.96
2022-10-19T15:12:47.876Z,88.35
2022-10-19T15:15:29.474Z,88.96
2022-10-19T15:18:06.585Z,90.44
2022-10-19T15:20:44.181Z,90.29
2022-10-19T15:23:45.042Z,89.93
2022-10-19T15:26:26.680Z,89.69
2022-10-19T15:28:55.040Z,89.27
2022-10-19T15:31:28.320Z,88.80
2022-10-19T15:33:57.833Z,88.52
2022-10-19T15:36:25.737Z,90.06
2022-10-19T15:39:06.292Z,90.94
2022-10-19T15:41:44.933Z,92.08
2022-10-19T15:44:34.099Z,91.81
2022-10-19T15:47:15.688Z,94.26
2022-10-19T15:49:43.157Z,92.32
2022-10-19T15:52:42.406Z,93.99
2022-10-19T15:55:11.993Z,93.91
2022-10-19T15:57:40.811Z,94.43
2022-10-19T16:00:15.076Z,94.24
2022-10-19T16:02:41.526Z,94.67
2022-10-19T16:05:08.590Z,94.61
2022-10-19T16:07:38.834Z,95.12
2022-10-19T16:10:06.440Z,94.35
2022-10-19T16:12:32.863Z,94.31
2022-10-19T16:14:59.365Z,94.17
2022-10-19T16:17:28.068Z,94.46
2022-10-19T16:19:54.423Z,96.38
2022-10-19T16:22:20.928Z,96.75
2022-10-19T16:24:47.340Z,96.01
2022-10-19T16:27:16.985Z,97.91
2022-10-19T16:29:44.557Z,98.22
2022-10-19T16:32:11.109Z,99.78
2022-10-19T16:34:37.984Z,99.73
2022-10-19T16:37:06.861Z,100.00
2022-10-19T16:39:33.895Z,100.00
2022-10-19T16:42:00.249Z,100.00
2022-10-19T16:44:26.691Z,100.00
2022-10-19T16:46:53.127Z,100.00
2022-10-19T16:49:19.497Z,100.00
2022-10-19T16:51:46.589Z,100.00
2022-10-19T16:54:15.525Z,100.00
2022-10-19T16:56:45.174Z,100.00
2022-10-19T16:59:17.469Z,100.00
2022-10-19T17:01:45.641Z,100.00
2022-10-19T17:04:19.069Z,100.00
2022-10-19T17:06:46.357Z,100.00
2022-10-19T17:11:59.657Z,100.00
2022-10-19T17:14:26.059Z,100.00
2022-10-19T17:16:52.452Z,100.00
2022-10-19T17:19:21.483Z,100.00
2022-10-19T17:21:49.445Z,100.00
2022-10-19T17:24:24.541Z,100.00
2022-10-19T17:26:52.728Z,100.00
2022-10-19T17:29:20.324Z,100.00
2022-10-19T17:31:48.216Z,100.00
2022-10-19T17:34:15.247Z,100.00
2022-10-19T17:36:44.693Z,100.00
2022-10-19T17:39:19.105Z,100.00
2022-10-19T17:41:48.834Z,100.00
2022-10-19T17:44:16.331Z,100.00
2022-10-19T17:46:46.006Z,100.00
2022-10-19T17:49:16.391Z,100.00
2022-10-19T17:51:43.517Z,100.00
2022-10-19T17:54:15.965Z,100.00
2022-10-19T17:56:45.094Z,100.00
2022-10-19T17:59:11.945Z,100.00
2022-10-19T18:01:38.460Z,100.00
2022-10-19T18:04:05.291Z,100.00
2022-10-19T18:06:34.208Z,100.00
2022-10-19T18:09:02.886Z,100.00
2022-10-19T18:11:32.397Z,100.00
2022-10-19T18:14:00.680Z,100.00
2022-10-19T18:16:41.905Z,100.00
2022-10-19T18:19:08.587Z,100.00
2022-10-19T18:21:41.265Z,100.00
2022-10-19T18:24:14.334Z,100.00
2022-10-19T18:26:42.426Z,100.00
2022-10-19T18:29:12.886Z,100.00
2022-10-19T18:31:40.198Z,100.00
2022-10-19T18:34:08.961Z,100.00
2022-10-19T18:36:35.454Z,100.00
2022-10-19T18:39:04.121Z,100.00
2022-10-19T18:41:30.923Z,100.00
2022-10-19T18:44:03.229Z,100.00
2022-10-19T18:46:30.150Z,100.00
2022-10-19T18:48:59.459Z,100.00
2022-10-19T18:51:28.573Z,100.00
2022-10-19T18:53:57.849Z,100.00
2022-10-19T18:56:24.685Z,100.00
2022-10-19T18:58:52.557Z,100.00
2022-10-19T19:01:24.103Z,100.00
2022-10-19T19:03:53.480Z,100.00
2022-10-19T19:06:25.059Z,100.00
2022-10-19T19:08:54.784Z,100.00
2022-10-19T19:11:26.544Z,100.00
2022-10-19T19:13:59.584Z,100.00
2022-10-19T19:16:27.234Z,100.00
2022-10-19T19:18:54.661Z,100.00
2022-10-19T19:21:24.661Z,100.00
2022-10-19T19:23:54.841Z,100.00
2022-10-19T19:26:23.137Z,100.00
2022-10-19T19:28:51.842Z,100.00
2022-10-19T19:31:18.545Z,100.00
2022-10-19T19:33:46.190Z,100.00
2022-10-19T19:36:15.435Z,100.00
2022-10-19T19:38:42.036Z,100.00
2022-10-19T19:41:12.194Z,100.00
2022-10-19T19:43:39.471Z,100.00
2022-10-19T19:46:14.882Z,100.00
2022-10-19T19:48:43.440Z,100.00
2022-10-19T19:51:20.751Z,100.00
2022-10-19T19:53:48.511Z,100.00
2022-10-19T19:56:17.780Z,100.00
2022-10-19T19:58:45.168Z,100.00
2022-10-19T20:01:19.363Z,100.00
2022-10-19T20:03:46.600Z,100.00
2022-10-19T20:06:19.595Z,100.00
2022-10-19T20:08:49.352Z,100.00
2022-10-19T20:11:18.127Z,100.00
2022-10-19T20:13:45.771Z,100.00
2022-10-19T20:16:15.994Z,100.00
2022-10-19T20:18:47.574Z,100.00
2022-10-19T20:21:14.699Z,100.00
2022-10-19T20:23:45.508Z,100.00
2022-10-19T20:26:21.436Z,100.00
2022-10-19T20:28:50.891Z,100.00
2022-10-19T20:31:19.468Z,100.00
2022-10-19T20:33:49.671Z,100.00
2022-10-19T20:36:19.603Z,100.00
2022-10-19T20:38:48.723Z,100.00
2022-10-19T20:41:15.896Z,100.00
2022-10-19T20:43:42.385Z,100.00
2022-10-19T20:46:12.502Z,100.00
2022-10-19T20:48:41.459Z,100.00
2022-10-19T20:51:14.617Z,100.00
2022-10-19T20:53:45.054Z,100.00
2022-10-19T20:56:13.441Z,100.00
2022-10-19T20:58:42.530Z,100.00
2022-10-19T21:01:14.011Z,100.00
2022-10-19T21:03:50.417Z,100.00
2022-10-19T21:06:16.770Z,100.00
2022-10-19T21:08:43.290Z,100.00
2022-10-19T21:11:22.193Z,100.00
2022-10-19T21:13:55.382Z,100.00
2022-10-19T21:16:23.710Z,100.00
2022-10-19T21:18:53.716Z,100.00
2022-10-19T21:21:32.556Z,100.00
2022-10-19T21:24:05.407Z,100.00
2022-10-19T21:26:33.841Z,100.00
2022-10-19T21:29:01.040Z,100.00
2022-10-19T21:31:30.422Z,100.00
2022-10-19T21:33:57.654Z,100.00
2022-10-19T21:36:27.446Z,100.00
2022-10-19T21:38:53.859Z,100.00
2022-10-19T21:41:26.205Z,100.00
2022-10-19T21:43:53.399Z,100.00
2022-10-19T21:46:21.431Z,100.00
2022-10-19T21:48:48.634Z,100.00
2022-10-19T21:51:27.294Z,100.00
2022-10-19T21:53:53.862Z,100.00
2022-10-19T21:56:21.141Z,100.00
2022-10-19T21:58:51.236Z,100.00
2022-10-19T22:01:19.773Z,100.00
2022-10-19T22:03:48.507Z,100.00
2022-10-19T22:06:15.302Z,100.00
2022-10-19T22:08:47.601Z,100.00
2022-10-19T22:11:19.247Z,100.00
2022-10-19T22:13:46.190Z,100.00
2022-10-19T22:16:18.917Z,100.00
2022-10-19T22:18:46.332Z,100.00
2022-10-19T22:21:16.066Z,100.00
2022-10-19T22:23:43.111Z,100.00
2022-10-19T22:26:14.798Z,100.00
2022-10-19T22:28:41.581Z,100.00
2022-10-19T22:31:08.461Z,100.00
2022-10-19T22:33:35.098Z,100.00
2022-10-19T22:36:03.214Z,100.00
2022-10-19T22:38:29.713Z,100.00
2022-10-19T22:40:56.134Z,100.00
2022-10-19T22:43:24.810Z,100.00
2022-10-19T22:45:52.042Z,100.00
2022-10-19T22:48:18.958Z,100.00
2022-10-19T22:50:46.111Z,100.00
2022-10-19T22:53:13.411Z,100.00
2022-10-19T22:55:39.916Z,100.00
2022-10-19T22:58:08.806Z,100.00
2022-10-19T23:00:35.657Z,100.00
2022-10-19T23:03:02.233Z,100.00
2022-10-19T23:05:31.197Z,100.00
2022-10-19T23:07:57.589Z,100.00
2022-10-19T23:10:26.468Z,100.00
2022-10-19T23:12:53.854Z,100.00
2022-10-19T23:15:21.895Z,100.00
2022-10-19T23:17:48.274Z,100.00
2022-10-19T23:20:15.132Z,100.00
2022-10-19T23:22:41.935Z,100.00
2022-10-19T23:25:09.163Z,100.00
2022-10-19T23:27:35.817Z,100.00
2022-10-19T23:30:04.340Z,100.00
2022-10-19T23:32:30.886Z,100.00
2022-10-19T23:34:57.224Z,100.00
2022-10-19T23:37:23.630Z,100.00
2022-10-19T23:39:49.968Z,100.00
2022-10-19T23:42:18.720Z,100.00
2022-10-19T23:44:45.927Z,100.00
2022-10-19T23:47:12.314Z,100.00
2022-10-19T23:49:38.764Z,100.00
2022-10-19T23:52:06.352Z,100.00
2022-10-19T23:54:32.742Z,100.00
2022-10-19T23:57:01.657Z,100.00
2022-10-19T23:59:30.710Z,100.00
